Accueil
METAR-TAF:

METAR-TAF

Aéroports :

Aéroport de Carcassonne Salvaza

Carcassonne, France

latitude: 43-13N, longitude: 002-19E, altitude: 130 m

Observation

Le bulletin a été fait il y a 17 minutes, à 15:30 UTC
Vent 12 kt de ouest, variant entre ouest/sud-ouest et nord-ouest
Température 27°C
Humidité 42%
Pression 1019 hPa
Visibilité 10 km ou plus
pas de nuages en-dessous de 1500 mètres et pas de cumulonimbus.

METAR: LFMK 211530Z AUTO 28012KT 250V310 CAVOK 27/13 Q1019 TEMPO 30015G25KT

Heure: 17:47 (15:47 UTC)

Prévision

Le bulletin a été fait il y a 1 heure et 47 minutes, à 14:00 UTC
Prévision valable du 21 à 15 UTC au 22 à 15 UTC
Vent 13 kt de ouest/nord-ouest
Visibilité 10 km ou plus
pas de nuages en-dessous de 1500 mètres et pas de cumulonimbus.
Temporairement
du 21 à 15 UTC au 21 à 17 UTC
Vent 15 kt de ouest/nord-ouest avec des rafales jusqu'à 25 kt

TAF: LFMK 211400Z 2115/2215 29013KT CAVOK TEMPO 2115/2117 30015G25KT

Observations et prévisions météorologiques de plus de 4000 aéroports (messages METAR et TAF).

Les stations disponibles sont représentées par des disques jaunes et rouges sur la carte.

Passer la souris dessus pour voir le nom de la station.

Cliquer dessus pour voir les observations et prévisions météorologiques.

Pour changer de carte: cliquez sur les boutons verts avec une croix noire pour zoomer, sur le bouton vert avec un tiret pour effectuer un zoom arrière, ou sur les flèches vertes pour les cartes adjacentes.


METAR-TAF: